createdAt,value
2023-05-20T00:00:53.342Z,23.52
2023-05-20T00:03:20.651Z,24.60
2023-05-20T00:05:47.968Z,22.55
2023-05-20T00:08:15.516Z,22.73
2023-05-20T00:10:42.424Z,22.02
2023-05-20T00:13:09.431Z,23.92
2023-05-20T00:15:37.058Z,24.75
2023-05-20T00:18:04.831Z,25.05
2023-05-20T00:20:32.630Z,25.25
2023-05-20T00:22:59.900Z,25.65
2023-05-20T00:25:26.854Z,24.90
2023-05-20T00:27:53.830Z,25.45
2023-05-20T00:30:21.028Z,30.40
2023-05-20T00:32:48.161Z,24.30
2023-05-20T00:35:15.406Z,23.13
2023-05-20T00:37:42.863Z,22.80
2023-05-20T00:40:10.145Z,25.05
2023-05-20T00:42:37.088Z,27.27
2023-05-20T00:45:04.354Z,26.90
2023-05-20T00:47:34.586Z,26.00
2023-05-20T00:50:02.240Z,21.27
2023-05-20T00:52:32.837Z,22.75
2023-05-20T00:55:00.123Z,22.40
2023-05-20T00:57:27.529Z,23.98
2023-05-20T00:59:55.257Z,22.00
2023-05-20T01:02:22.793Z,26.83
2023-05-20T01:04:50.751Z,26.63
2023-05-20T01:07:18.781Z,28.77
2023-05-20T01:09:46.829Z,24.88
2023-05-20T01:12:23.833Z,25.80
2023-05-20T01:15:01.596Z,25.88
2023-05-20T01:17:38.015Z,23.83
2023-05-20T01:20:08.860Z,25.33
2023-05-20T01:22:38.251Z,22.30
2023-05-20T01:27:32.551Z,24.30
2023-05-20T01:30:00.208Z,25.33
2023-05-20T01:32:39.231Z,20.08
2023-05-20T01:35:09.894Z,21.95
2023-05-20T01:37:40.473Z,25.10
2023-05-20T01:40:08.934Z,23.48
2023-05-20T01:42:36.918Z,23.63
2023-05-20T01:45:05.183Z,24.70
2023-05-20T01:47:32.946Z,26.40
2023-05-20T01:50:00.964Z,24.30
2023-05-20T01:52:31.866Z,29.88
2023-05-20T01:54:58.920Z,36.78
2023-05-20T01:57:26.433Z,45.78
2023-05-20T01:59:53.541Z,53.90
2023-05-20T02:02:22.203Z,74.72
2023-05-20T02:04:51.207Z,76.90
2023-05-20T02:07:19.020Z,81.43
2023-05-20T02:09:46.681Z,72.00
2023-05-20T02:12:17.177Z,79.43
2023-05-20T02:14:46.090Z,79.47
2023-05-20T02:17:17.671Z,83.72
2023-05-20T02:19:46.051Z,76.13
2023-05-20T02:22:13.784Z,62.58
2023-05-20T02:24:40.806Z,63.38
2023-05-20T02:27:08.029Z,59.85
2023-05-20T02:29:35.302Z,59.30
2023-05-20T02:32:02.872Z,62.15
2023-05-20T02:34:32.488Z,62.13
2023-05-20T02:39:26.283Z,72.38
2023-05-20T02:41:53.230Z,66.97
2023-05-20T02:44:20.396Z,62.28
2023-05-20T02:46:48.581Z,55.40
2023-05-20T02:49:15.659Z,57.80
2023-05-20T02:51:42.723Z,43.67
2023-05-20T02:54:09.842Z,44.80
2023-05-20T02:56:36.836Z,46.83
2023-05-20T02:59:04.797Z,40.03
2023-05-20T03:01:33.924Z,36.42
2023-05-20T03:04:02.528Z,38.13
2023-05-20T03:06:32.630Z,43.30
2023-05-20T03:08:59.820Z,37.85
2023-05-20T03:11:26.878Z,35.67
2023-05-20T03:13:53.860Z,35.05
2023-05-20T03:16:21.014Z,35.75
2023-05-20T03:18:48.426Z,34.70
2023-05-20T03:21:18.794Z,34.38
2023-05-20T03:23:45.907Z,32.75
2023-05-20T03:26:13.118Z,30.42
2023-05-20T03:28:40.151Z,30.75
2023-05-20T03:31:07.908Z,32.47
2023-05-20T03:33:35.557Z,33.10
2023-05-20T03:36:03.877Z,31.40
2023-05-20T03:38:31.089Z,34.88
2023-05-20T03:40:57.994Z,35.00
2023-05-20T03:43:25.676Z,31.38
2023-05-20T03:45:52.818Z,36.90
2023-05-20T03:48:20.575Z,33.38
2023-05-20T03:50:49.652Z,33.33
2023-05-20T03:53:17.578Z,34.53
2023-05-20T03:55:44.633Z,34.45
2023-05-20T03:58:13.812Z,35.53
2023-05-20T04:00:41.653Z,34.22
2023-05-20T04:03:08.974Z,34.60
2023-05-20T04:05:36.914Z,32.97
2023-05-20T04:08:07.755Z,30.42
2023-05-20T04:10:34.859Z,29.75
2023-05-20T04:13:01.930Z,30.20
2023-05-20T04:15:29.877Z,28.42
2023-05-20T04:20:26.028Z,29.20
2023-05-20T04:22:56.214Z,33.45
2023-05-20T04:25:24.046Z,30.08
2023-05-20T04:27:51.083Z,30.40
2023-05-20T04:30:18.629Z,28.45
2023-05-20T04:32:45.774Z,28.13
2023-05-20T04:35:16.181Z,29.27
2023-05-20T04:37:49.086Z,29.02
2023-05-20T04:40:17.210Z,30.67
2023-05-20T04:42:44.911Z,26.85
2023-05-20T04:45:13.789Z,26.88
2023-05-20T04:47:42.172Z,27.42
2023-05-20T04:50:13.730Z,27.23
2023-05-20T04:52:43.198Z,28.88
2023-05-20T04:55:12.329Z,31.02
2023-05-20T04:57:42.971Z,29.48
2023-05-20T05:00:12.567Z,27.88
2023-05-20T05:02:41.012Z,32.42
2023-05-20T05:05:08.807Z,30.45
2023-05-20T05:07:36.328Z,29.35
2023-05-20T05:10:03.520Z,27.55
2023-05-20T05:12:34.763Z,26.58
2023-05-20T05:15:02.788Z,28.60
2023-05-20T05:17:33.479Z,25.23
2023-05-20T05:20:01.330Z,24.95
2023-05-20T05:22:32.721Z,27.77
2023-05-20T05:25:00.160Z,25.38
2023-05-20T05:27:27.247Z,26.88
2023-05-20T05:29:54.441Z,26.05
2023-05-20T05:32:21.827Z,25.73
2023-05-20T05:34:48.894Z,23.35
2023-05-20T05:37:15.984Z,25.08
2023-05-20T05:39:44.255Z,25.83
2023-05-20T05:42:11.628Z,25.25
2023-05-20T05:44:38.828Z,27.80
2023-05-20T05:47:08.059Z,23.70
2023-05-20T05:49:35.250Z,27.23
2023-05-20T05:52:03.360Z,24.25
2023-05-20T05:54:30.524Z,25.25
2023-05-20T05:56:57.652Z,27.52
2023-05-20T05:59:26.527Z,21.65
2023-05-20T06:01:53.590Z,20.20
2023-05-20T06:04:20.897Z,21.88
2023-05-20T06:06:48.525Z,48.10
2023-05-20T06:09:16.543Z,54.58
2023-05-20T06:11:44.468Z,26.02
2023-05-20T06:14:11.432Z,21.45
2023-05-20T06:16:38.591Z,16.48
2023-05-20T06:19:09.356Z,16.27
2023-05-20T06:21:36.963Z,22.13
2023-05-20T06:24:04.872Z,16.13
2023-05-20T06:26:33.472Z,14.82
2023-05-20T06:29:00.827Z,17.65
2023-05-20T06:31:30.219Z,17.20
2023-05-20T06:33:57.867Z,16.38
2023-05-20T06:36:27.428Z,15.13
2023-05-20T06:38:54.448Z,15.90
2023-05-20T06:41:22.416Z,17.25
2023-05-20T06:43:53.367Z,16.52
2023-05-20T06:46:29.500Z,22.90
2023-05-20T06:49:03.343Z,16.45
2023-05-20T06:51:31.028Z,13.93
2023-05-20T06:53:58.103Z,15.35
2023-05-20T06:56:25.138Z,18.23
2023-05-20T06:58:52.436Z,12.43
2023-05-20T07:01:19.501Z,12.55
2023-05-20T07:03:47.684Z,11.10
2023-05-20T07:06:15.148Z,14.55
2023-05-20T07:08:42.362Z,15.73
2023-05-20T07:11:09.661Z,13.82
2023-05-20T07:13:38.006Z,11.38
2023-05-20T07:16:06.100Z,16.23
2023-05-20T07:18:34.035Z,12.73
2023-05-20T07:21:01.323Z,13.05
2023-05-20T07:23:35.979Z,13.13
2023-05-20T07:26:03.308Z,13.30
2023-05-20T07:28:30.345Z,13.73
2023-05-20T07:30:58.701Z,10.70
2023-05-20T07:33:29.743Z,17.60
2023-05-20T07:35:58.046Z,10.60
2023-05-20T07:38:25.210Z,19.65
2023-05-20T07:40:57.512Z,14.43
2023-05-20T07:43:24.825Z,13.82
2023-05-20T07:45:51.994Z,13.55
2023-05-20T07:48:19.004Z,14.65
2023-05-20T07:50:45.931Z,11.13
2023-05-20T07:53:13.405Z,12.35
2023-05-20T07:55:40.445Z,11.85
2023-05-20T07:58:07.603Z,10.13
2023-05-20T08:00:36.058Z,12.90
2023-05-20T08:03:08.335Z,13.07
2023-05-20T08:05:54.628Z,13.32
2023-05-20T08:08:22.136Z,11.93
2023-05-20T08:11:04.300Z,11.82
2023-05-20T08:13:33.074Z,13.57
2023-05-20T08:16:03.982Z,13.60
2023-05-20T08:18:31.203Z,12.23
2023-05-20T08:20:59.006Z,13.75
2023-05-20T08:23:26.711Z,12.73
2023-05-20T08:25:53.747Z,12.85
2023-05-20T08:28:23.120Z,10.13
2023-05-20T08:30:52.060Z,11.23
2023-05-20T08:33:19.514Z,13.48
2023-05-20T08:35:46.607Z,11.68
2023-05-20T08:38:14.845Z,13.50
2023-05-20T08:40:41.831Z,11.98
2023-05-20T08:43:09.798Z,10.73
2023-05-20T08:45:39.091Z,11.45
2023-05-20T08:48:11.813Z,12.52
2023-05-20T08:50:39.330Z,13.70
2023-05-20T08:53:07.284Z,11.32
2023-05-20T08:55:37.008Z,12.65
2023-05-20T08:58:05.269Z,12.80
2023-05-20T09:00:32.333Z,12.57
2023-05-20T09:03:01.183Z,14.32
2023-05-20T09:05:28.828Z,17.05
2023-05-20T09:08:09.097Z,11.43
2023-05-20T09:10:37.308Z,12.05
2023-05-20T09:13:05.690Z,12.50
2023-05-20T09:15:34.037Z,9.90
2023-05-20T09:18:02.494Z,15.23
2023-05-20T09:20:29.998Z,13.73
2023-05-20T09:23:02.109Z,15.35
2023-05-20T09:25:29.599Z,13.55
2023-05-20T09:27:56.951Z,11.43
2023-05-20T09:30:24.613Z,11.50
2023-05-20T09:32:59.202Z,10.55
2023-05-20T09:35:27.547Z,11.82
2023-05-20T09:37:56.893Z,12.63
2023-05-20T09:40:28.766Z,13.25
2023-05-20T09:43:03.040Z,12.38
2023-05-20T09:45:30.789Z,11.23
2023-05-20T09:47:58.292Z,14.98
2023-05-20T09:50:26.460Z,11.07
2023-05-20T09:52:54.831Z,9.45
2023-05-20T09:55:24.304Z,11.77
2023-05-20T10:00:19.845Z,11.85
2023-05-20T10:02:50.216Z,12.48
2023-05-20T10:05:21.994Z,11.13
2023-05-20T10:08:10.950Z,9.93
2023-05-20T10:10:47.883Z,11.45
2023-05-20T10:13:33.254Z,14.43
2023-05-20T10:16:05.827Z,10.52
2023-05-20T10:18:45.516Z,10.07
2023-05-20T10:21:17.206Z,10.52
2023-05-20T10:23:44.628Z,11.80
2023-05-20T10:26:11.724Z,11.95
2023-05-20T10:28:41.488Z,10.82
2023-05-20T10:31:21.766Z,8.98
2023-05-20T10:33:52.279Z,10.48
2023-05-20T10:36:31.770Z,11.23
2023-05-20T10:39:00.022Z,7.97
2023-05-20T10:41:28.978Z,10.43
2023-05-20T10:44:06.791Z,9.80
2023-05-20T10:46:51.473Z,11.13
2023-05-20T10:49:27.259Z,8.52
2023-05-20T10:51:55.646Z,8.55
2023-05-20T10:54:23.409Z,9.45
2023-05-20T10:56:52.703Z,10.40
2023-05-20T10:59:21.636Z,10.02
2023-05-20T11:01:49.372Z,10.40
2023-05-20T11:04:17.531Z,11.15
2023-05-20T11:06:53.958Z,10.40
2023-05-20T11:09:21.912Z,10.80
2023-05-20T11:11:51.050Z,9.75
2023-05-20T11:16:47.122Z,10.32
2023-05-20T11:19:18.961Z,9.95
2023-05-20T11:21:48.021Z,9.77
2023-05-20T11:24:22.175Z,9.68
2023-05-20T11:26:49.316Z,11.55
2023-05-20T11:29:18.050Z,10.43
2023-05-20T11:31:45.114Z,10.63
2023-05-20T11:34:12.515Z,8.27
2023-05-20T11:36:43.267Z,14.48
2023-05-20T11:39:13.539Z,11.70
2023-05-20T11:41:42.637Z,14.95
2023-05-20T11:44:15.879Z,10.18
2023-05-20T11:46:44.570Z,15.68
2023-05-20T11:49:13.753Z,12.30
2023-05-20T11:51:42.860Z,10.07
2023-05-20T11:54:10.707Z,9.15
2023-05-20T11:56:38.986Z,12.98
2023-05-20T11:59:07.261Z,11.47
2023-05-20T12:01:43.548Z,10.02
2023-05-20T12:04:11.381Z,10.43
2023-05-20T12:06:38.580Z,10.15
2023-05-20T12:09:08.757Z,11.43
2023-05-20T12:11:37.842Z,10.57
2023-05-20T12:14:04.895Z,11.60
2023-05-20T12:16:33.954Z,12.07
2023-05-20T12:21:29.295Z,10.65
2023-05-20T12:23:59.373Z,10.32
2023-05-20T12:26:30.153Z,11.15
2023-05-20T12:28:57.410Z,15.10
2023-05-20T12:31:25.833Z,11.57
2023-05-20T12:33:52.943Z,9.00
2023-05-20T12:36:20.048Z,9.77
2023-05-20T12:38:47.515Z,10.77
2023-05-20T12:41:14.495Z,11.57
2023-05-20T12:43:41.637Z,8.90
2023-05-20T12:46:08.867Z,9.00
2023-05-20T12:48:36.925Z,6.72
2023-05-20T12:51:04.323Z,6.20
2023-05-20T12:53:31.404Z,6.47
2023-05-20T12:55:58.561Z,6.60
2023-05-20T12:58:25.555Z,8.18
2023-05-20T13:00:52.567Z,5.80
2023-05-20T13:03:20.097Z,8.27
2023-05-20T13:05:47.225Z,8.40
2023-05-20T13:08:14.976Z,5.78
2023-05-20T13:10:42.216Z,8.02
2023-05-20T13:13:09.387Z,8.98
2023-05-20T13:15:36.872Z,9.20
2023-05-20T13:18:06.369Z,8.98
2023-05-20T13:23:00.484Z,7.65
2023-05-20T13:25:28.038Z,6.70
2023-05-20T13:27:55.010Z,8.05
2023-05-20T13:30:22.034Z,8.65
2023-05-20T13:32:49.162Z,8.65
2023-05-20T13:35:17.013Z,8.15
2023-05-20T13:37:44.254Z,7.78
2023-05-20T13:40:11.903Z,7.97
2023-05-20T13:42:39.166Z,8.60
2023-05-20T13:45:07.013Z,8.48
2023-05-20T13:47:34.348Z,8.10
2023-05-20T13:50:03.107Z,8.25
2023-05-20T13:52:30.979Z,8.27
2023-05-20T13:54:58.174Z,7.72
2023-05-20T13:57:25.249Z,9.82
2023-05-20T13:59:52.369Z,7.25
2023-05-20T14:02:19.614Z,8.27
2023-05-20T14:04:47.227Z,8.57
2023-05-20T14:07:14.423Z,8.07
2023-05-20T14:09:41.617Z,8.15
2023-05-20T14:12:08.787Z,12.63
2023-05-20T14:14:35.944Z,7.75
2023-05-20T14:17:03.094Z,8.88
2023-05-20T14:19:30.253Z,9.52
2023-05-20T14:22:01.073Z,10.02
2023-05-20T14:24:28.278Z,8.25
2023-05-20T14:26:55.527Z,13.18
2023-05-20T14:29:22.384Z,9.52
2023-05-20T14:31:49.381Z,44.10
2023-05-20T14:34:16.732Z,11.77
2023-05-20T14:36:44.314Z,10.25
2023-05-20T14:39:11.367Z,10.10
2023-05-20T14:41:38.399Z,10.18
2023-05-20T14:44:05.793Z,10.43
2023-05-20T14:46:33.188Z,11.60
2023-05-20T14:49:00.406Z,10.45
2023-05-20T14:51:27.473Z,11.07
2023-05-20T14:53:54.415Z,11.18
2023-05-20T14:56:21.805Z,10.70
2023-05-20T14:58:48.742Z,9.10
2023-05-20T15:01:15.801Z,11.23
2023-05-20T15:03:42.786Z,13.88
2023-05-20T15:06:09.892Z,10.95
2023-05-20T15:08:37.018Z,14.00
2023-05-20T15:11:04.279Z,9.35
2023-05-20T15:13:31.310Z,11.75
2023-05-20T15:15:58.305Z,8.80
2023-05-20T15:18:25.262Z,13.57
2023-05-20T15:20:52.296Z,12.85
2023-05-20T15:23:19.293Z,11.85
2023-05-20T15:25:46.336Z,10.38
2023-05-20T15:28:13.256Z,13.73
2023-05-20T15:30:40.404Z,10.00
2023-05-20T15:33:07.577Z,10.85
2023-05-20T15:35:34.650Z,11.38
2023-05-20T15:38:02.484Z,12.18
2023-05-20T15:40:29.648Z,10.82
2023-05-20T15:42:57.239Z,11.57
2023-05-20T15:45:24.681Z,9.68
2023-05-20T15:47:51.624Z,10.80
2023-05-20T15:50:18.823Z,11.65
2023-05-20T15:52:46.058Z,10.77
2023-05-20T15:55:13.179Z,10.48
2023-05-20T15:57:40.232Z,9.50
2023-05-20T16:00:10.464Z,9.07
2023-05-20T16:02:38.319Z,10.00
2023-05-20T16:05:06.351Z,10.75
2023-05-20T16:07:33.329Z,10.98
2023-05-20T16:10:00.429Z,9.70
2023-05-20T16:12:27.475Z,11.07
2023-05-20T16:14:54.540Z,11.70
2023-05-20T16:17:21.965Z,12.43
2023-05-20T16:19:49.242Z,9.75
2023-05-20T16:22:17.984Z,13.80
2023-05-20T16:24:45.411Z,12.55
2023-05-20T16:27:12.587Z,11.38
2023-05-20T16:29:39.963Z,10.63
2023-05-20T16:32:07.529Z,9.85
2023-05-20T16:34:34.675Z,11.80
2023-05-20T16:37:02.015Z,11.30
2023-05-20T16:39:29.044Z,10.48
2023-05-20T16:41:55.977Z,9.30
2023-05-20T16:44:23.176Z,9.15
2023-05-20T16:46:51.889Z,10.23
2023-05-20T16:49:20.356Z,9.73
2023-05-20T16:51:47.394Z,10.13
2023-05-20T16:54:14.310Z,11.65
2023-05-20T16:56:42.017Z,7.15
2023-05-20T16:59:08.989Z,10.30
2023-05-20T17:01:37.007Z,11.60
2023-05-20T17:04:04.300Z,14.05
2023-05-20T17:06:34.496Z,12.77
2023-05-20T17:09:05.391Z,9.95
2023-05-20T17:11:33.082Z,12.30
2023-05-20T17:14:00.985Z,10.55
2023-05-20T17:16:28.102Z,11.18
2023-05-20T17:18:56.465Z,12.68
2023-05-20T17:21:23.482Z,11.13
2023-05-20T17:23:50.547Z,11.13
2023-05-20T17:26:17.539Z,9.27
2023-05-20T17:28:44.628Z,10.32
2023-05-20T17:31:11.914Z,11.98
2023-05-20T17:33:39.434Z,13.38
2023-05-20T17:36:06.784Z,9.18
2023-05-20T17:38:33.957Z,10.82
2023-05-20T17:41:01.098Z,10.65
2023-05-20T17:43:28.103Z,13.98
2023-05-20T17:45:55.363Z,13.02
2023-05-20T17:48:22.390Z,12.05
2023-05-20T17:50:49.365Z,16.05
2023-05-20T17:53:18.749Z,13.27
2023-05-20T17:55:47.670Z,13.50
2023-05-20T17:58:15.033Z,10.70
2023-05-20T18:00:42.819Z,12.95
2023-05-20T18:03:10.446Z,9.45
2023-05-20T18:05:37.827Z,11.57
2023-05-20T18:08:05.337Z,10.30
2023-05-20T18:10:32.296Z,13.52
2023-05-20T18:12:59.231Z,12.60
2023-05-20T18:15:26.226Z,11.52
2023-05-20T18:17:53.286Z,13.73
2023-05-20T18:20:20.634Z,13.40
2023-05-20T18:22:50.469Z,15.75
2023-05-20T18:25:17.874Z,12.80
2023-05-20T18:27:44.832Z,13.13
2023-05-20T18:30:11.926Z,11.70
2023-05-20T18:32:39.165Z,10.35
2023-05-20T18:35:06.854Z,10.85
2023-05-20T18:37:34.358Z,13.27
2023-05-20T18:40:01.498Z,13.70
2023-05-20T18:42:28.860Z,11.65
2023-05-20T18:44:55.862Z,14.85
2023-05-20T18:47:23.071Z,13.07
2023-05-20T18:49:49.954Z,13.88
2023-05-20T18:52:17.052Z,12.88
2023-05-20T18:54:44.136Z,13.23
2023-05-20T18:57:11.147Z,10.18
2023-05-20T18:59:38.271Z,14.10
2023-05-20T19:02:05.617Z,14.20
2023-05-20T19:04:32.633Z,16.63
2023-05-20T19:07:00.956Z,16.63
2023-05-20T19:09:27.980Z,13.27
2023-05-20T19:11:58.906Z,11.73
2023-05-20T19:14:26.058Z,13.32
2023-05-20T19:16:53.170Z,12.82
2023-05-20T19:19:20.280Z,13.05
2023-05-20T19:21:47.251Z,11.63
2023-05-20T19:24:14.311Z,12.93
2023-05-20T19:26:41.307Z,11.35
2023-05-20T19:29:08.412Z,14.07
2023-05-20T19:31:35.528Z,13.85
2023-05-20T19:34:02.613Z,11.73
2023-05-20T19:36:29.547Z,13.20
2023-05-20T19:38:58.366Z,13.75
2023-05-20T19:41:26.105Z,13.45
2023-05-20T19:43:53.066Z,16.58
2023-05-20T19:46:20.209Z,13.18
2023-05-20T19:48:47.175Z,20.50
2023-05-20T19:51:14.208Z,14.57
2023-05-20T19:53:41.128Z,13.07
2023-05-20T19:56:08.404Z,13.98
2023-05-20T19:58:35.355Z,15.23
2023-05-20T20:01:02.713Z,13.98
2023-05-20T20:03:29.974Z,12.13
2023-05-20T20:05:57.271Z,13.07
2023-05-20T20:08:24.278Z,14.38
2023-05-20T20:10:51.343Z,15.98
2023-05-20T20:13:18.336Z,26.15
2023-05-20T20:15:45.399Z,17.65
2023-05-20T20:18:12.388Z,18.20
2023-05-20T20:20:42.717Z,15.93
2023-05-20T20:23:10.018Z,15.88
2023-05-20T20:25:38.829Z,17.63
2023-05-20T20:28:07.673Z,11.38
2023-05-20T20:30:36.179Z,13.57
2023-05-20T20:33:06.510Z,13.45
2023-05-20T20:35:34.240Z,13.48
2023-05-20T20:38:08.373Z,15.73
2023-05-20T20:40:41.694Z,16.45
2023-05-20T20:43:11.171Z,18.83
2023-05-20T20:45:38.222Z,17.15
2023-05-20T20:48:07.934Z,20.25
2023-05-20T20:50:36.469Z,16.65
2023-05-20T20:53:03.790Z,17.35
2023-05-20T20:55:30.857Z,18.67
2023-05-20T20:57:58.424Z,16.08
2023-05-20T21:00:27.042Z,16.95
2023-05-20T21:02:54.127Z,18.60
2023-05-20T21:05:21.618Z,16.80
2023-05-20T21:07:52.611Z,19.30
2023-05-20T21:10:20.682Z,17.88
2023-05-20T21:12:48.550Z,19.15
2023-05-20T21:15:15.816Z,15.48
2023-05-20T21:17:42.759Z,16.75
2023-05-20T21:20:10.539Z,16.95
2023-05-20T21:22:37.766Z,16.67
2023-05-20T21:25:05.667Z,20.35
2023-05-20T21:27:32.571Z,15.50
2023-05-20T21:29:59.536Z,16.52
2023-05-20T21:32:26.749Z,19.55
2023-05-20T21:34:54.283Z,14.77
2023-05-20T21:37:22.365Z,16.80
2023-05-20T21:39:49.331Z,16.95
2023-05-20T21:42:16.282Z,19.15
2023-05-20T21:44:43.180Z,21.23
2023-05-20T21:47:10.223Z,17.23
2023-05-20T21:49:37.170Z,20.00
2023-05-20T21:52:04.359Z,19.70
2023-05-20T21:54:31.278Z,23.77
2023-05-20T21:56:58.356Z,21.60
2023-05-20T21:59:25.222Z,26.48
2023-05-20T22:01:52.268Z,22.58
2023-05-20T22:04:19.143Z,18.40
2023-05-20T22:06:46.407Z,18.52
2023-05-20T22:09:13.293Z,18.50
2023-05-20T22:11:40.168Z,17.35
2023-05-20T22:14:07.223Z,17.65
2023-05-20T22:16:34.265Z,23.65
2023-05-20T22:19:02.578Z,19.65
2023-05-20T22:21:32.093Z,20.15
2023-05-20T22:24:01.440Z,21.67
2023-05-20T22:26:28.548Z,22.52
2023-05-20T22:28:55.670Z,23.02
2023-05-20T22:31:22.652Z,27.08
2023-05-20T22:33:49.589Z,23.35
2023-05-20T22:36:16.648Z,23.17
2023-05-20T22:38:43.860Z,22.20
2023-05-20T22:41:10.930Z,22.77
2023-05-20T22:43:37.875Z,23.25
2023-05-20T22:46:05.054Z,20.00
2023-05-20T22:48:32.079Z,24.27
2023-05-20T22:51:01.248Z,22.83
2023-05-20T22:53:28.605Z,21.65
2023-05-20T22:55:56.469Z,21.60
2023-05-20T22:58:24.061Z,23.95
2023-05-20T23:00:51.099Z,24.38
2023-05-20T23:03:18.155Z,21.77
2023-05-20T23:05:45.069Z,23.23
2023-05-20T23:08:12.309Z,24.35
2023-05-20T23:10:39.251Z,25.48
2023-05-20T23:13:06.371Z,25.08
2023-05-20T23:15:33.328Z,24.60
2023-05-20T23:18:00.568Z,25.55
2023-05-20T23:20:29.387Z,20.58
2023-05-20T23:22:56.396Z,22.88
2023-05-20T23:25:24.516Z,23.25
2023-05-20T23:27:51.537Z,22.58
2023-05-20T23:30:18.489Z,22.27
2023-05-20T23:32:45.559Z,21.48
2023-05-20T23:35:13.317Z,22.98
2023-05-20T23:37:40.962Z,24.30
2023-05-20T23:40:09.250Z,21.75
2023-05-20T23:42:36.819Z,25.73
2023-05-20T23:45:04.584Z,23.60
2023-05-20T23:47:34.356Z,21.70
2023-05-20T23:50:01.464Z,19.25
2023-05-20T23:52:32.633Z,22.05
2023-05-20T23:55:00.432Z,21.30
2023-05-20T23:57:27.471Z,21.77
2023-05-20T23:59:54.389Z,21.52
